<?xml version="1.0" encoding="utf-8"?>
<gpx xmlns:xsi="http://www.w3.org/2001/XMLSchema-instance" xmlns:xsd="http://www.w3.org/2001/XMLSchema" version="1.1" creator="Shapelink.com" xmlns="http://www.topografix.com/GPX/1/1" xmlns:gpxtpx="http://www.garmin.com/xmlschemas/TrackPointExtension/v1">
  <metadata>
    <name>Cykling 7.00 km, 2019-07-21</name>
    <desc></desc>
    <author><name>Marian Moron</name></author> 
    <time>2019-07-21T10:24:33Z</time>
  </metadata>
  <trk>
    <name>Cykling 7.00 km, 2019-07-21</name>
    <trkseg>
      <trkpt lat="51.228958095052" lon="4.448641624858">
        <ele>29.8</ele>
        <time>2019-07-21T10:24:33Z</time>
      </trkpt>
      <trkpt lat="51.229320444589" lon="4.449286444425">
        <ele>21.6</ele>
        <time>2019-07-21T10:24:48Z</time>
      </trkpt>
      <trkpt lat="51.229447011279" lon="4.450149528668">
        <ele>17.4</ele>
        <time>2019-07-21T10:25:00Z</time>
      </trkpt>
      <trkpt lat="51.229652619286" lon="4.451006745581">
        <ele>12.8</ele>
        <time>2019-07-21T10:25:19Z</time>
      </trkpt>
      <trkpt lat="51.229695283157" lon="4.451130294787">
        <ele>13</ele>
        <time>2019-07-21T10:25:21Z</time>
      </trkpt>
      <trkpt lat="51.229858646388" lon="4.452032690141">
        <ele>11.2</ele>
        <time>2019-07-21T10:25:33Z</time>
      </trkpt>
      <trkpt lat="51.229957971903" lon="4.452534346856">
        <ele>9.4</ele>
        <time>2019-07-21T10:25:39Z</time>
      </trkpt>
      <trkpt lat="51.230108846103" lon="4.453369770829">
        <ele>8.2</ele>
        <time>2019-07-21T10:25:49Z</time>
      </trkpt>
      <trkpt lat="51.230277992845" lon="4.454232016882">
        <ele>7.4</ele>
        <time>2019-07-21T10:25:59Z</time>
      </trkpt>
      <trkpt lat="51.230333145747" lon="4.454569639814">
        <ele>7.4</ele>
        <time>2019-07-21T10:26:03Z</time>
      </trkpt>
      <trkpt lat="51.230310179341" lon="4.454730823751">
        <ele>7.2</ele>
        <time>2019-07-21T10:26:05Z</time>
      </trkpt>
      <trkpt lat="51.230226360341" lon="4.455111110554">
        <ele>8</ele>
        <time>2019-07-21T10:26:10Z</time>
      </trkpt>
      <trkpt lat="51.230240358114" lon="4.455223595652">
        <ele>8.4</ele>
        <time>2019-07-21T10:26:12Z</time>
      </trkpt>
      <trkpt lat="51.230300288699" lon="4.455301128227">
        <ele>8.6</ele>
        <time>2019-07-21T10:26:14Z</time>
      </trkpt>
      <trkpt lat="51.230375222885" lon="4.455370027445">
        <ele>8.8</ele>
        <time>2019-07-21T10:26:16Z</time>
      </trkpt>
      <trkpt lat="51.230459125704" lon="4.455527355708">
        <ele>9.2</ele>
        <time>2019-07-21T10:26:19Z</time>
      </trkpt>
      <trkpt lat="51.230525845628" lon="4.455611342346">
        <ele>9.6</ele>
        <time>2019-07-21T10:26:21Z</time>
      </trkpt>
      <trkpt lat="51.231016522054" lon="4.456042423463">
        <ele>14.6</ele>
        <time>2019-07-21T10:26:33Z</time>
      </trkpt>
      <trkpt lat="51.231127414591" lon="4.456157171674">
        <ele>16.2</ele>
        <time>2019-07-21T10:26:36Z</time>
      </trkpt>
      <trkpt lat="51.231267057045" lon="4.456317685059">
        <ele>17.4</ele>
        <time>2019-07-21T10:26:40Z</time>
      </trkpt>
      <trkpt lat="51.231272589099" lon="4.456452298373">
        <ele>18.4</ele>
        <time>2019-07-21T10:26:42Z</time>
      </trkpt>
      <trkpt lat="51.231215927455" lon="4.457363997636">
        <ele>20</ele>
        <time>2019-07-21T10:26:53Z</time>
      </trkpt>
      <trkpt lat="51.23119958275" lon="4.457528701971">
        <ele>20.2</ele>
        <time>2019-07-21T10:26:55Z</time>
      </trkpt>
      <trkpt lat="51.23112917479" lon="4.457616460464">
        <ele>19.8</ele>
        <time>2019-07-21T10:26:57Z</time>
      </trkpt>
      <trkpt lat="51.230561887798" lon="4.457756689651">
        <ele>16.2</ele>
        <time>2019-07-21T10:27:08Z</time>
      </trkpt>
      <trkpt lat="51.230000468136" lon="4.457880657952">
        <ele>15</ele>
        <time>2019-07-21T10:27:19Z</time>
      </trkpt>
      <trkpt lat="51.229955205876" lon="4.457901193607">
        <ele>15</ele>
        <time>2019-07-21T10:27:20Z</time>
      </trkpt>
      <trkpt lat="51.229673574036" lon="4.458057264585">
        <ele>14.8</ele>
        <time>2019-07-21T10:27:28Z</time>
      </trkpt>
      <trkpt lat="51.229643818291" lon="4.458023569347">
        <ele>13.6</ele>
        <time>2019-07-21T10:27:46Z</time>
      </trkpt>
      <trkpt lat="51.229677345891" lon="4.458004710072">
        <ele>13.8</ele>
        <time>2019-07-21T10:27:51Z</time>
      </trkpt>
      <trkpt lat="51.230211608197" lon="4.457770519786">
        <ele>18.2</ele>
        <time>2019-07-21T10:28:13Z</time>
      </trkpt>
      <trkpt lat="51.230784930157" lon="4.457618807396">
        <ele>13</ele>
        <time>2019-07-21T10:28:26Z</time>
      </trkpt>
      <trkpt lat="51.231197151999" lon="4.457458796925">
        <ele>8.4</ele>
        <time>2019-07-21T10:28:37Z</time>
      </trkpt>
      <trkpt lat="51.231261692629" lon="4.456603926944">
        <ele>9.6</ele>
        <time>2019-07-21T10:28:51Z</time>
      </trkpt>
      <trkpt lat="51.231326317078" lon="4.456391697236">
        <ele>9.2</ele>
        <time>2019-07-21T10:28:56Z</time>
      </trkpt>
      <trkpt lat="51.231510635059" lon="4.456206708703">
        <ele>13.6</ele>
        <time>2019-07-21T10:29:07Z</time>
      </trkpt>
      <trkpt lat="51.231955294854" lon="4.45671322692">
        <ele>9.8</ele>
        <time>2019-07-21T10:29:20Z</time>
      </trkpt>
      <trkpt lat="51.232198956687" lon="4.456917074728">
        <ele>10.2</ele>
        <time>2019-07-21T10:29:27Z</time>
      </trkpt>
      <trkpt lat="51.232255031598" lon="4.456860413084">
        <ele>10.8</ele>
        <time>2019-07-21T10:29:29Z</time>
      </trkpt>
      <trkpt lat="51.232268777914" lon="4.456736277145">
        <ele>11.8</ele>
        <time>2019-07-21T10:29:31Z</time>
      </trkpt>
      <trkpt lat="51.232102061923" lon="4.455856261464">
        <ele>13</ele>
        <time>2019-07-21T10:29:45Z</time>
      </trkpt>
      <trkpt lat="51.231940375072" lon="4.455034416169">
        <ele>16.6</ele>
        <time>2019-07-21T10:29:58Z</time>
      </trkpt>
      <trkpt lat="51.231789249415" lon="4.454165632234">
        <ele>9</ele>
        <time>2019-07-21T10:30:13Z</time>
      </trkpt>
      <trkpt lat="51.231662934182" lon="4.453459624797">
        <ele>7.4</ele>
        <time>2019-07-21T10:30:23Z</time>
      </trkpt>
      <trkpt lat="51.231530248705" lon="4.452604084264">
        <ele>4.6</ele>
        <time>2019-07-21T10:30:35Z</time>
      </trkpt>
      <trkpt lat="51.231420697272" lon="4.451922887251">
        <ele>2.4</ele>
        <time>2019-07-21T10:30:45Z</time>
      </trkpt>
      <trkpt lat="51.231288766166" lon="4.451072292039">
        <ele>1.2</ele>
        <time>2019-07-21T10:30:57Z</time>
      </trkpt>
      <trkpt lat="51.231195140343" lon="4.450475836035">
        <ele>1.4</ele>
        <time>2019-07-21T10:31:06Z</time>
      </trkpt>
      <trkpt lat="51.23103948846" lon="4.449630689058">
        <ele>0.4</ele>
        <time>2019-07-21T10:31:21Z</time>
      </trkpt>
      <trkpt lat="51.231009145982" lon="4.44950479292">
        <ele>0</ele>
        <time>2019-07-21T10:31:23Z</time>
      </trkpt>
      <trkpt lat="51.230972684717" lon="4.449386189035">
        <ele>0.2</ele>
        <time>2019-07-21T10:31:25Z</time>
      </trkpt>
      <trkpt lat="51.23076288576" lon="4.448561074799">
        <ele>0</ele>
        <time>2019-07-21T10:31:38Z</time>
      </trkpt>
      <trkpt lat="51.230699518596" lon="4.448320765726">
        <ele>0</ele>
        <time>2019-07-21T10:31:42Z</time>
      </trkpt>
      <trkpt lat="51.230486953612" lon="4.447469583781">
        <ele>0</ele>
        <time>2019-07-21T10:31:54Z</time>
      </trkpt>
      <trkpt lat="51.230253769154" lon="4.446682104276">
        <ele>0</ele>
        <time>2019-07-21T10:32:05Z</time>
      </trkpt>
      <trkpt lat="51.23002611675" lon="4.445827234295">
        <ele>0</ele>
        <time>2019-07-21T10:32:17Z</time>
      </trkpt>
      <trkpt lat="51.229780862356" lon="4.445008909398">
        <ele>0</ele>
        <time>2019-07-21T10:32:30Z</time>
      </trkpt>
      <trkpt lat="51.229782957831" lon="4.444917127593">
        <ele>0</ele>
        <time>2019-07-21T10:32:33Z</time>
      </trkpt>
      <trkpt lat="51.229789914808" lon="4.444911763177">
        <ele>0</ele>
        <time>2019-07-21T10:32:34Z</time>
      </trkpt>
      <trkpt lat="51.229799553993" lon="4.444891311341">
        <ele>0.4</ele>
        <time>2019-07-21T10:32:39Z</time>
      </trkpt>
      <trkpt lat="51.229815311965" lon="4.444863231976">
        <ele>0.4</ele>
        <time>2019-07-21T10:32:41Z</time>
      </trkpt>
      <trkpt lat="51.230031648804" lon="4.44472375716">
        <ele>1.2</ele>
        <time>2019-07-21T10:32:50Z</time>
      </trkpt>
      <trkpt lat="51.230042209998" lon="4.444663994213">
        <ele>0.2</ele>
        <time>2019-07-21T10:32:52Z</time>
      </trkpt>
      <trkpt lat="51.230023769818" lon="4.444597525746">
        <ele>0.4</ele>
        <time>2019-07-21T10:33:17Z</time>
      </trkpt>
      <trkpt lat="51.230016226108" lon="4.444577660643">
        <ele>0.2</ele>
        <time>2019-07-21T10:33:18Z</time>
      </trkpt>
      <trkpt lat="51.229917571145" lon="4.444259567538">
        <ele>0.8</ele>
        <time>2019-07-21T10:33:25Z</time>
      </trkpt>
      <trkpt lat="51.229793770482" lon="4.44341785714">
        <ele>1</ele>
        <time>2019-07-21T10:33:37Z</time>
      </trkpt>
      <trkpt lat="51.229779521252" lon="4.443081072398">
        <ele>3</ele>
        <time>2019-07-21T10:33:44Z</time>
      </trkpt>
      <trkpt lat="51.229766780764" lon="4.443045868418">
        <ele>4.6</ele>
        <time>2019-07-21T10:34:54Z</time>
      </trkpt>
      <trkpt lat="51.229766613126" lon="4.44303061336">
        <ele>5.2</ele>
        <time>2019-07-21T10:34:56Z</time>
      </trkpt>
      <trkpt lat="51.229718333382" lon="4.442353607297">
        <ele>4.4</ele>
        <time>2019-07-21T10:35:11Z</time>
      </trkpt>
      <trkpt lat="51.22964641668" lon="4.442202649278">
        <ele>3.2</ele>
        <time>2019-07-21T10:35:15Z</time>
      </trkpt>
      <trkpt lat="51.229604088085" lon="4.442159398674">
        <ele>2.8</ele>
        <time>2019-07-21T10:35:17Z</time>
      </trkpt>
      <trkpt lat="51.229539631274" lon="4.442091505284">
        <ele>2</ele>
        <time>2019-07-21T10:35:21Z</time>
      </trkpt>
      <trkpt lat="51.229540637102" lon="4.442197787776">
        <ele>1.6</ele>
        <time>2019-07-21T10:35:25Z</time>
      </trkpt>
      <trkpt lat="51.230091244113" lon="4.442319576783">
        <ele>5</ele>
        <time>2019-07-21T10:35:39Z</time>
      </trkpt>
      <trkpt lat="51.2306421864" lon="4.44263163492">
        <ele>13.4</ele>
        <time>2019-07-21T10:35:57Z</time>
      </trkpt>
      <trkpt lat="51.230763807769" lon="4.44261822388">
        <ele>15</ele>
        <time>2019-07-21T10:36:00Z</time>
      </trkpt>
      <trkpt lat="51.230879142713" lon="4.442480928358">
        <ele>5.4</ele>
        <time>2019-07-21T10:39:54Z</time>
      </trkpt>
      <trkpt lat="51.230823067802" lon="4.442462404359">
        <ele>3.2</ele>
        <time>2019-07-21T10:39:59Z</time>
      </trkpt>
      <trkpt lat="51.230271203506" lon="4.442437258659">
        <ele>0</ele>
        <time>2019-07-21T10:40:15Z</time>
      </trkpt>
      <trkpt lat="51.229717746649" lon="4.44233240109">
        <ele>5.8</ele>
        <time>2019-07-21T10:40:27Z</time>
      </trkpt>
      <trkpt lat="51.229573745607" lon="4.442240451647">
        <ele>5.2</ele>
        <time>2019-07-21T10:40:30Z</time>
      </trkpt>
      <trkpt lat="51.229163451602" lon="4.441870642219">
        <ele>0.4</ele>
        <time>2019-07-21T10:40:40Z</time>
      </trkpt>
      <trkpt lat="51.229074938738" lon="4.441791014169">
        <ele>0</ele>
        <time>2019-07-21T10:40:42Z</time>
      </trkpt>
      <trkpt lat="51.22862801583" lon="4.441179470745">
        <ele>0</ele>
        <time>2019-07-21T10:40:53Z</time>
      </trkpt>
      <trkpt lat="51.228264911922" lon="4.440497267904">
        <ele>0</ele>
        <time>2019-07-21T10:41:05Z</time>
      </trkpt>
      <trkpt lat="51.228146978589" lon="4.440225275249">
        <ele>0</ele>
        <time>2019-07-21T10:41:10Z</time>
      </trkpt>
      <trkpt lat="51.228102889795" lon="4.440115891454">
        <ele>0.6</ele>
        <time>2019-07-21T10:41:51Z</time>
      </trkpt>
      <trkpt lat="51.228103392709" lon="4.440106671364">
        <ele>0.6</ele>
        <time>2019-07-21T10:41:53Z</time>
      </trkpt>
      <trkpt lat="51.227888396974" lon="4.439777262694">
        <ele>1</ele>
        <time>2019-07-21T10:42:03Z</time>
      </trkpt>
      <trkpt lat="51.227851684252" lon="4.439657988257">
        <ele>0.8</ele>
        <time>2019-07-21T10:42:05Z</time>
      </trkpt>
      <trkpt lat="51.227521521211" lon="4.438980814556">
        <ele>0</ele>
        <time>2019-07-21T10:42:15Z</time>
      </trkpt>
      <trkpt lat="51.227426973379" lon="4.438791970349">
        <ele>0</ele>
        <time>2019-07-21T10:42:18Z</time>
      </trkpt>
      <trkpt lat="51.227355308134" lon="4.438603042323">
        <ele>0</ele>
        <time>2019-07-21T10:42:21Z</time>
      </trkpt>
      <trkpt lat="51.22730451382" lon="4.438488294112">
        <ele>0</ele>
        <time>2019-07-21T10:42:23Z</time>
      </trkpt>
      <trkpt lat="51.227094882501" lon="4.438008095061">
        <ele>0</ele>
        <time>2019-07-21T10:42:31Z</time>
      </trkpt>
      <trkpt lat="51.227063869471" lon="4.437652199587">
        <ele>0</ele>
        <time>2019-07-21T10:42:36Z</time>
      </trkpt>
      <trkpt lat="51.227014667718" lon="4.437141909515">
        <ele>0</ele>
        <time>2019-07-21T10:42:42Z</time>
      </trkpt>
      <trkpt lat="51.226894387453" lon="4.436425089427">
        <ele>0</ele>
        <time>2019-07-21T10:42:49Z</time>
      </trkpt>
      <trkpt lat="51.226922382999" lon="4.436274634322">
        <ele>0</ele>
        <time>2019-07-21T10:42:51Z</time>
      </trkpt>
      <trkpt lat="51.227323289276" lon="4.435660241052">
        <ele>0.8</ele>
        <time>2019-07-21T10:43:02Z</time>
      </trkpt>
      <trkpt lat="51.227682872786" lon="4.434994969649">
        <ele>0</ele>
        <time>2019-07-21T10:43:11Z</time>
      </trkpt>
      <trkpt lat="51.227742216638" lon="4.434824481803">
        <ele>0</ele>
        <time>2019-07-21T10:43:13Z</time>
      </trkpt>
      <trkpt lat="51.22795578745" lon="4.433945974864">
        <ele>0</ele>
        <time>2019-07-21T10:43:23Z</time>
      </trkpt>
      <trkpt lat="51.228016807682" lon="4.433513552643">
        <ele>0.4</ele>
        <time>2019-07-21T10:43:28Z</time>
      </trkpt>
      <trkpt lat="51.228044216495" lon="4.433152460391">
        <ele>2.8</ele>
        <time>2019-07-21T10:43:32Z</time>
      </trkpt>
      <trkpt lat="51.228272539451" lon="4.432288454139">
        <ele>10</ele>
        <time>2019-07-21T10:43:41Z</time>
      </trkpt>
      <trkpt lat="51.228427353144" lon="4.431424447887">
        <ele>11.4</ele>
        <time>2019-07-21T10:43:50Z</time>
      </trkpt>
      <trkpt lat="51.228628770201" lon="4.430553568477">
        <ele>7.2</ele>
        <time>2019-07-21T10:44:01Z</time>
      </trkpt>
      <trkpt lat="51.228648383847" lon="4.430476035902">
        <ele>7</ele>
        <time>2019-07-21T10:44:02Z</time>
      </trkpt>
      <trkpt lat="51.228688281691" lon="4.430316276888">
        <ele>6.2</ele>
        <time>2019-07-21T10:44:04Z</time>
      </trkpt>
      <trkpt lat="51.228884669608" lon="4.429509435194">
        <ele>3.8</ele>
        <time>2019-07-21T10:44:14Z</time>
      </trkpt>
      <trkpt lat="51.229093378918" lon="4.428702342043">
        <ele>4</ele>
        <time>2019-07-21T10:44:24Z</time>
      </trkpt>
      <trkpt lat="51.229337711303" lon="4.427841940008">
        <ele>2.8</ele>
        <time>2019-07-21T10:44:34Z</time>
      </trkpt>
      <trkpt lat="51.229518341248" lon="4.426949770572">
        <ele>1.8</ele>
        <time>2019-07-21T10:44:44Z</time>
      </trkpt>
      <trkpt lat="51.229669383086" lon="4.426190370432">
        <ele>0.2</ele>
        <time>2019-07-21T10:44:53Z</time>
      </trkpt>
      <trkpt lat="51.229734007535" lon="4.42603882568">
        <ele>0.2</ele>
        <time>2019-07-21T10:44:55Z</time>
      </trkpt>
      <trkpt lat="51.229821263114" lon="4.425916282302">
        <ele>0.4</ele>
        <time>2019-07-21T10:44:57Z</time>
      </trkpt>
      <trkpt lat="51.229906758494" lon="4.425812262923">
        <ele>0.2</ele>
        <time>2019-07-21T10:44:59Z</time>
      </trkpt>
      <trkpt lat="51.230064841128" lon="4.425479836769">
        <ele>0</ele>
        <time>2019-07-21T10:45:04Z</time>
      </trkpt>
      <trkpt lat="51.230223761952" lon="4.424587332057">
        <ele>0</ele>
        <time>2019-07-21T10:45:14Z</time>
      </trkpt>
      <trkpt lat="51.230224600142" lon="4.42441022251">
        <ele>0</ele>
        <time>2019-07-21T10:45:16Z</time>
      </trkpt>
      <trkpt lat="51.230186294859" lon="4.42350246274">
        <ele>0.8</ele>
        <time>2019-07-21T10:45:26Z</time>
      </trkpt>
      <trkpt lat="51.230151929069" lon="4.423117817349">
        <ele>1.6</ele>
        <time>2019-07-21T10:45:31Z</time>
      </trkpt>
      <trkpt lat="51.230155700924" lon="4.422970128271">
        <ele>2.2</ele>
        <time>2019-07-21T10:45:33Z</time>
      </trkpt>
      <trkpt lat="51.230112198863" lon="4.422100338508">
        <ele>1.4</ele>
        <time>2019-07-21T10:45:43Z</time>
      </trkpt>
      <trkpt lat="51.230116892727" lon="4.421640507474">
        <ele>1</ele>
        <time>2019-07-21T10:45:48Z</time>
      </trkpt>
      <trkpt lat="51.230155533286" lon="4.420717744103">
        <ele>0.6</ele>
        <time>2019-07-21T10:45:58Z</time>
      </trkpt>
      <trkpt lat="51.230170872163" lon="4.420341480612">
        <ele>0.8</ele>
        <time>2019-07-21T10:46:02Z</time>
      </trkpt>
      <trkpt lat="51.230303641459" lon="4.419421902363">
        <ele>1</ele>
        <time>2019-07-21T10:46:12Z</time>
      </trkpt>
      <trkpt lat="51.230393327789" lon="4.418806670903">
        <ele>0.6</ele>
        <time>2019-07-21T10:46:19Z</time>
      </trkpt>
      <trkpt lat="51.23035552542" lon="4.41867281196">
        <ele>1</ele>
        <time>2019-07-21T10:46:21Z</time>
      </trkpt>
      <trkpt lat="51.230286961478" lon="4.418586226933">
        <ele>1.6</ele>
        <time>2019-07-21T10:46:23Z</time>
      </trkpt>
      <trkpt lat="51.230200963184" lon="4.418570888056">
        <ele>2.2</ele>
        <time>2019-07-21T10:46:25Z</time>
      </trkpt>
      <trkpt lat="51.230062410377" lon="4.418553872799">
        <ele>2.6</ele>
        <time>2019-07-21T10:46:28Z</time>
      </trkpt>
      <trkpt lat="51.229907512865" lon="4.418479273889">
        <ele>2.4</ele>
        <time>2019-07-21T10:46:32Z</time>
      </trkpt>
      <trkpt lat="51.229861663872" lon="4.417583416417">
        <ele>3</ele>
        <time>2019-07-21T10:46:46Z</time>
      </trkpt>
      <trkpt lat="51.229864597537" lon="4.416707759324">
        <ele>0</ele>
        <time>2019-07-21T10:46:56Z</time>
      </trkpt>
      <trkpt lat="51.229858981664" lon="4.415775272949">
        <ele>0.4</ele>
        <time>2019-07-21T10:47:06Z</time>
      </trkpt>
      <trkpt lat="51.229817658897" lon="4.414865501523">
        <ele>6</ele>
        <time>2019-07-21T10:47:16Z</time>
      </trkpt>
      <trkpt lat="51.229808606445" lon="4.413996717588">
        <ele>15.6</ele>
        <time>2019-07-21T10:47:26Z</time>
      </trkpt>
      <trkpt lat="51.22984925866" lon="4.413671416049">
        <ele>8.6</ele>
        <time>2019-07-21T10:47:30Z</time>
      </trkpt>
      <trkpt lat="51.229646751956" lon="4.412902544362">
        <ele>15</ele>
        <time>2019-07-21T10:47:45Z</time>
      </trkpt>
      <trkpt lat="51.229567291544" lon="4.412917883239">
        <ele>14.6</ele>
        <time>2019-07-21T10:47:47Z</time>
      </trkpt>
      <trkpt lat="51.229353804551" lon="4.413082671393">
        <ele>16.2</ele>
        <time>2019-07-21T10:47:51Z</time>
      </trkpt>
      <trkpt lat="51.229247773516" lon="4.413227762082">
        <ele>19.6</ele>
        <time>2019-07-21T10:47:53Z</time>
      </trkpt>
      <trkpt lat="51.22869004189" lon="4.413509142465">
        <ele>41</ele>
        <time>2019-07-21T10:48:01Z</time>
      </trkpt>
      <trkpt lat="51.228162066009" lon="4.413706787667">
        <ele>40.8</ele>
        <time>2019-07-21T10:48:09Z</time>
      </trkpt>
      <trkpt lat="51.227964085531" lon="4.413704189278">
        <ele>40.8</ele>
        <time>2019-07-21T10:48:12Z</time>
      </trkpt>
      <trkpt lat="51.227370144097" lon="4.413901163928">
        <ele>40</ele>
        <time>2019-07-21T10:48:21Z</time>
      </trkpt>
      <trkpt lat="51.226797744146" lon="4.414113728912">
        <ele>39.2</ele>
        <time>2019-07-21T10:48:30Z</time>
      </trkpt>
      <trkpt lat="51.226328944479" lon="4.414289497355">
        <ele>28.4</ele>
        <time>2019-07-21T10:48:40Z</time>
      </trkpt>
      <trkpt lat="51.226336739646" lon="4.414260915076">
        <ele>18.4</ele>
        <time>2019-07-21T10:49:37Z</time>
      </trkpt>
      <trkpt lat="51.226309833747" lon="4.414264519293">
        <ele>18.6</ele>
        <time>2019-07-21T10:49:40Z</time>
      </trkpt>
      <trkpt lat="51.225808596127" lon="4.41446928911">
        <ele>12.4</ele>
        <time>2019-07-21T10:49:53Z</time>
      </trkpt>
      <trkpt lat="51.225710108802" lon="4.414574146679">
        <ele>10.4</ele>
        <time>2019-07-21T10:49:55Z</time>
      </trkpt>
      <trkpt lat="51.225588487433" lon="4.414639776956">
        <ele>8</ele>
        <time>2019-07-21T10:49:57Z</time>
      </trkpt>
      <trkpt lat="51.225071743298" lon="4.41483390176">
        <ele>7.8</ele>
        <time>2019-07-21T10:50:05Z</time>
      </trkpt>
      <trkpt lat="51.224881977082" lon="4.414859215098">
        <ele>11</ele>
        <time>2019-07-21T10:50:08Z</time>
      </trkpt>
      <trkpt lat="51.224655079049" lon="4.414960636088">
        <ele>16.2</ele>
        <time>2019-07-21T10:50:12Z</time>
      </trkpt>
      <trkpt lat="51.224500852089" lon="4.41500908347">
        <ele>28.8</ele>
        <time>2019-07-21T10:50:58Z</time>
      </trkpt>
      <trkpt lat="51.224473191819" lon="4.415001455941">
        <ele>28.8</ele>
        <time>2019-07-21T10:51:01Z</time>
      </trkpt>
      <trkpt lat="51.224137580543" lon="4.415117545256">
        <ele>19.4</ele>
        <time>2019-07-21T10:51:11Z</time>
      </trkpt>
      <trkpt lat="51.223993998596" lon="4.415240843005">
        <ele>15</ele>
        <time>2019-07-21T10:51:14Z</time>
      </trkpt>
      <trkpt lat="51.2234086067" lon="4.415485426847">
        <ele>8.2</ele>
        <time>2019-07-21T10:51:23Z</time>
      </trkpt>
      <trkpt lat="51.222874092937" lon="4.415745349566">
        <ele>17.6</ele>
        <time>2019-07-21T10:51:31Z</time>
      </trkpt>
      <trkpt lat="51.222746771876" lon="4.415801927391">
        <ele>18.6</ele>
        <time>2019-07-21T10:51:33Z</time>
      </trkpt>
      <trkpt lat="51.222150064415" lon="4.415979791309">
        <ele>21.6</ele>
        <time>2019-07-21T10:51:42Z</time>
      </trkpt>
      <trkpt lat="51.221590321133" lon="4.416150027698">
        <ele>26.8</ele>
        <time>2019-07-21T10:51:51Z</time>
      </trkpt>
      <trkpt lat="51.221035523172" lon="4.416403412535">
        <ele>37.4</ele>
        <time>2019-07-21T10:52:00Z</time>
      </trkpt>
      <trkpt lat="51.220852797752" lon="4.416456134686">
        <ele>40.8</ele>
        <time>2019-07-21T10:52:03Z</time>
      </trkpt>
      <trkpt lat="51.220516348286" lon="4.416384385622">
        <ele>49.8</ele>
        <time>2019-07-21T10:52:10Z</time>
      </trkpt>
      <trkpt lat="51.220523389082" lon="4.416223704599">
        <ele>43.6</ele>
        <time>2019-07-21T10:52:12Z</time>
      </trkpt>
      <trkpt lat="51.220586672427" lon="4.415985239544">
        <ele>31.6</ele>
        <time>2019-07-21T10:52:15Z</time>
      </trkpt>
      <trkpt lat="51.220637466741" lon="4.41582380415">
        <ele>23.2</ele>
        <time>2019-07-21T10:52:17Z</time>
      </trkpt>
      <trkpt lat="51.220255168282" lon="4.415531611116">
        <ele>9.2</ele>
        <time>2019-07-21T10:52:37Z</time>
      </trkpt>
      <trkpt lat="51.219913186762" lon="4.415391465748">
        <ele>11.2</ele>
        <time>2019-07-21T10:52:45Z</time>
      </trkpt>
      <trkpt lat="51.219816627274" lon="4.415323153263">
        <ele>10.2</ele>
        <time>2019-07-21T10:52:47Z</time>
      </trkpt>
      <trkpt lat="51.219269708299" lon="4.415040599414">
        <ele>13.2</ele>
        <time>2019-07-21T10:53:02Z</time>
      </trkpt>
      <trkpt lat="51.218726058265" lon="4.414795764115">
        <ele>13.4</ele>
        <time>2019-07-21T10:53:13Z</time>
      </trkpt>
      <trkpt lat="51.218181989136" lon="4.414470378757">
        <ele>11</ele>
        <time>2019-07-21T10:53:24Z</time>
      </trkpt>
      <trkpt lat="51.217875798329" lon="4.41419687736">
        <ele>15.8</ele>
        <time>2019-07-21T10:53:34Z</time>
      </trkpt>
      <trkpt lat="51.217358467461" lon="4.413918682099">
        <ele>14</ele>
        <time>2019-07-21T10:53:45Z</time>
      </trkpt>
      <trkpt lat="51.216794868505" lon="4.413646940901">
        <ele>13.4</ele>
        <time>2019-07-21T10:53:56Z</time>
      </trkpt>
      <trkpt lat="51.216286254813" lon="4.413217787621">
        <ele>17.4</ele>
        <time>2019-07-21T10:54:08Z</time>
      </trkpt>
      <trkpt lat="51.215818377155" lon="4.412812019842">
        <ele>10.6</ele>
        <time>2019-07-21T10:54:18Z</time>
      </trkpt>
      <trkpt lat="51.215334992982" lon="4.412364845477">
        <ele>12</ele>
        <time>2019-07-21T10:54:28Z</time>
      </trkpt>
      <trkpt lat="51.215258382416" lon="4.41225227656">
        <ele>15.6</ele>
        <time>2019-07-21T10:54:30Z</time>
      </trkpt>
      <trkpt lat="51.214858481967" lon="4.411614078694">
        <ele>27</ele>
        <time>2019-07-21T10:54:40Z</time>
      </trkpt>
      <trkpt lat="51.214455815491" lon="4.411046037331">
        <ele>16.4</ele>
        <time>2019-07-21T10:54:50Z</time>
      </trkpt>
      <trkpt lat="51.214424215728" lon="4.41083070632">
        <ele>0</ele>
        <time>2019-07-21T10:54:59Z</time>
      </trkpt>
      <trkpt lat="51.21427736484" lon="4.41066809746">
        <ele>0</ele>
        <time>2019-07-21T10:55:06Z</time>
      </trkpt>
      <trkpt lat="51.214412145792" lon="4.409832086754">
        <ele>0</ele>
        <time>2019-07-21T10:55:21Z</time>
      </trkpt>
      <trkpt lat="51.214463023925" lon="4.409467641742">
        <ele>0</ele>
        <time>2019-07-21T10:55:30Z</time>
      </trkpt>
      <trkpt lat="51.214565953657" lon="4.409464875715">
        <ele>0</ele>
        <time>2019-07-21T10:55:35Z</time>
      </trkpt>
      <trkpt lat="51.214574335557" lon="4.409411902107">
        <ele>0</ele>
        <time>2019-07-21T10:55:37Z</time>
      </trkpt>
      <trkpt lat="51.214566037476" lon="4.409390528262">
        <ele>0</ele>
        <time>2019-07-21T10:55:39Z</time>
      </trkpt>
    </trkseg>
  </trk>
</gpx>